Time;durP1;ratioP1;P1;durP2;ratioP2;P2;SDS_P1;SDS_P2;PMS_P1;PMS_P2;Temp;Humidity;BMP_temperature;BMP_pressure;BME280_temperature;BME280_humidity;BME280_pressure;Samples;Min_cycle;Max_cycle;Signal;HPM_P1;HPM_P2
2023/10/24 00:00:34;;;;;;;2.93;2.20;;;;;;;13.51;87.10;98017.97;5074267;28;41740;-85
2023/10/24 00:03:01;;;;;;;2.37;1.60;;;;;;;13.54;86.61;98001.75;5074181;28;44185;-85
2023/10/24 09:21:33;;;;;;;4.60;4.03;;;;;;;13.66;100.00;97849.00;5183202;27;20572;-83
2023/10/24 09:24:12;;;;;;;5.40;4.53;;;;;;;14.13;100.00;97841.13;5115359;27;40260;-82
2023/10/24 09:26:40;;;;;;;5.93;4.10;;;;;;;14.58;100.00;97850.19;5115598;27;42746;-82
2023/10/24 09:29:08;;;;;;;4.90;4.03;;;;;;;14.89;100.00;97839.25;5149619;27;42117;-84
2023/10/24 09:31:36;;;;;;;4.47;3.80;;;;;;;15.11;100.00;97833.50;5132750;27;41710;-85
2023/10/24 09:34:04;;;;;;;7.13;4.37;;;;;;;15.37;100.00;97829.13;5132495;27;39178;-83
2023/10/24 09:36:33;;;;;;;5.87;4.23;;;;;;;15.48;100.00;97829.91;5132669;27;42170;-85
2023/10/24 09:39:00;;;;;;;3.90;3.50;;;;;;;15.65;100.00;97821.94;5132459;27;42762;-84
2023/10/24 09:41:28;;;;;;;3.93;3.53;;;;;;;15.87;99.41;97825.97;5132765;27;42214;-84
2023/10/24 09:44:00;;;;;;;4.70;3.67;;;;;;;15.92;97.82;97818.34;5115341;27;40675;-84
2023/10/24 09:46:29;;;;;;;4.70;3.43;;;;;;;15.97;96.76;97821.38;5115025;27;41121;-84
2023/10/24 09:48:59;;;;;;;3.97;3.00;;;;;;;15.96;96.08;97830.38;5147663;27;43670;-84
2023/10/24 09:51:28;;;;;;;3.63;3.00;;;;;;;15.99;95.43;97832.75;5131404;27;42074;-82
2023/10/24 09:53:57;;;;;;;5.67;3.63;;;;;;;16.00;95.18;97839.75;5149455;27;40524;-84
2023/10/24 09:56:26;;;;;;;3.00;2.80;;;;;;;15.97;94.71;97842.72;5130960;27;41838;-86
2023/10/24 09:58:53;;;;;;;3.67;3.30;;;;;;;15.92;94.23;97849.53;5113314;27;42943;-82
2023/10/24 10:01:22;;;;;;;3.37;2.73;;;;;;;15.86;94.11;97840.31;5113699;27;43634;-83
2023/10/24 10:03:51;;;;;;;5.97;3.33;;;;;;;15.87;94.18;97841.97;5149411;27;40604;-83
2023/10/24 10:06:18;;;;;;;3.43;3.13;;;;;;;15.80;93.87;97835.59;5131013;27;40691;-85
2023/10/24 10:08:50;;;;;;;4.00;3.60;;;;;;;15.77;93.63;97833.22;5130577;27;42876;-85
2023/10/24 10:11:20;;;;;;;3.43;2.90;;;;;;;15.82;93.30;97851.47;5130490;27;41359;-84
2023/10/24 10:13:53;;;;;;;3.90;3.13;;;;;;;15.73;93.38;97834.50;5150160;27;40196;-84
2023/10/24 10:16:34;;;;;;;5.20;3.53;;;;;;;15.68;93.09;97836.81;5114775;27;41228;-83
2023/10/24 10:19:28;;;;;;;3.57;2.90;;;;;;;15.61;93.06;97838.41;5163477;27;43966;-83
2023/10/24 10:22:12;;;;;;;5.50;3.00;;;;;;;15.63;92.98;97850.63;5114613;27;42846;-82
2023/10/24 10:24:59;;;;;;;3.73;3.40;;;;;;;15.68;93.15;97853.69;5129872;27;40622;-82
2023/10/24 10:27:39;;;;;;;4.20;3.80;;;;;;;15.65;93.37;97842.47;5131376;27;41218;-83
2023/10/24 10:30:15;;;;;;;5.93;3.50;;;;;;;15.68;92.87;97858.19;5131636;27;41579;-82
2023/10/24 10:32:49;;;;;;;5.23;3.33;;;;;;;15.64;92.75;97846.94;5100617;27;41066;-81
2023/10/24 10:35:18;;;;;;;4.27;3.60;;;;;;;15.64;92.97;97849.63;5135561;27;39686;-84
2023/10/24 10:38:01;;;;;;;4.43;3.43;;;;;;;15.49;92.92;97826.25;5100977;27;42755;-82
2023/10/24 10:40:28;;;;;;;4.73;3.60;;;;;;;15.62;92.81;97848.09;5116755;27;42474;-83
2023/10/24 10:42:57;;;;;;;3.63;3.33;;;;;;;15.64;93.19;97846.13;5116187;27;43135;-84
2023/10/24 10:45:29;;;;;;;4.17;3.13;;;;;;;15.68;93.13;97844.81;5135371;27;40889;-83
2023/10/24 10:47:58;;;;;;;5.00;3.53;;;;;;;15.61;93.29;97823.22;5117210;27;41937;-84
2023/10/24 10:50:30;;;;;;;6.23;3.97;;;;;;;15.65;93.13;97815.75;5099482;27;41435;-83
2023/10/24 10:53:04;;;;;;;5.17;3.30;;;;;;;15.69;93.00;97811.81;5117269;27;41134;-83
2023/10/24 10:55:45;;;;;;;3.63;3.33;;;;;;;15.86;93.01;97821.63;5116577;27;40925;-83
2023/10/24 10:58:24;;;;;;;5.23;3.90;;;;;;;15.89;92.69;97815.97;5131879;27;41732;-82
2023/10/24 11:01:02;;;;;;;4.27;3.87;;;;;;;15.82;92.62;97804.25;5082431;27;44006;-82
2023/10/24 11:03:49;;;;;;;4.60;3.53;;;;;;;15.89;93.14;97813.31;5099992;27;41048;-83
2023/10/24 11:06:17;;;;;;;3.93;3.53;;;;;;;15.79;92.96;97802.72;5131893;27;40031;-82
2023/10/24 11:08:49;;;;;;;3.87;3.57;;;;;;;15.89;92.99;97799.97;5135050;27;41861;-83
2023/10/24 11:11:21;;;;;;;3.70;3.20;;;;;;;15.95;93.10;97790.50;5131905;27;42809;-83
2023/10/24 11:13:53;;;;;;;4.53;3.63;;;;;;;15.97;92.70;97797.34;5132200;27;43129;-83
2023/10/24 11:16:20;;;;;;;4.37;3.50;;;;;;;15.97;92.69;97794.66;5132748;27;40149;-83
2023/10/24 11:18:48;;;;;;;3.73;3.43;;;;;;;15.95;93.03;97779.81;5100100;27;40929;-82
2023/10/24 11:21:17;;;;;;;3.67;3.37;;;;;;;15.98;93.03;97783.00;5151739;27;42829;-82
2023/10/24 11:23:46;;;;;;;3.93;3.63;;;;;;;16.01;92.70;97779.19;5098832;27;41080;-84
2023/10/24 11:26:13;;;;;;;5.30;4.10;;;;;;;15.89;92.79;97759.91;5134864;27;40143;-83
2023/10/24 11:28:41;;;;;;;5.97;3.80;;;;;;;15.89;92.79;97757.25;5094826;28;40893;-83
2023/10/24 11:31:24;;;;;;;5.07;3.90;;;;;;;16.00;93.28;97765.00;5131024;27;43751;-83
2023/10/24 11:33:51;;;;;;;5.30;4.27;;;;;;;15.95;93.30;97764.59;5084926;27;41409;-83
2023/10/24 11:36:19;;;;;;;6.53;4.03;;;;;;;15.93;93.29;97750.59;5099695;27;40005;-84
2023/10/24 11:38:47;;;;;;;7.33;5.20;;;;;;;15.99;93.09;97763.31;5115408;27;42878;-84
2023/10/24 11:41:15;;;;;;;4.63;3.87;;;;;;;15.95;93.23;97761.94;5116951;27;42154;-84
2023/10/24 11:43:45;;;;;;;3.90;3.57;;;;;;;15.84;93.41;97750.69;5137265;27;43403;-84
2023/10/24 11:46:12;;;;;;;4.83;4.10;;;;;;;15.84;93.32;97756.84;5128407;27;42000;-85
2023/10/24 11:48:41;;;;;;;4.57;3.77;;;;;;;15.93;93.35;97773.78;5097674;27;40768;-84
2023/10/24 11:51:09;;;;;;;6.20;4.47;;;;;;;15.79;93.96;97768.03;5116030;27;43466;-85
2023/10/24 11:53:37;;;;;;;4.73;3.70;;;;;;;15.84;94.16;97786.22;5114411;27;42245;-86
2023/10/24 11:56:06;;;;;;;8.13;4.57;;;;;;;15.82;94.00;97764.22;5115462;27;39989;-85
2023/10/24 11:58:35;;;;;;;5.57;4.07;;;;;;;15.80;94.04;97779.53;5115658;27;41703;-86
2023/10/24 12:01:03;;;;;;;4.13;3.73;;;;;;;15.74;94.24;97758.78;5115367;27;42693;-85
2023/10/24 12:03:45;;;;;;;8.70;6.37;;;;;;;15.73;94.39;97755.28;5115664;27;41482;-85
2023/10/24 12:06:13;;;;;;;11.57;8.13;;;;;;;15.70;94.63;97749.44;5098646;27;38895;-86
2023/10/24 12:08:43;;;;;;;12.60;10.27;;;;;;;15.68;94.90;97740.72;5098180;27;40950;-86
2023/10/24 12:11:11;;;;;;;8.40;7.60;;;;;;;15.82;94.75;97758.03;5115564;27;43811;-86
2023/10/24 12:13:40;;;;;;;6.30;5.70;;;;;;;15.76;94.43;97746.13;5099163;27;41156;-85
2023/10/24 12:16:08;;;;;;;5.03;4.63;;;;;;;15.75;94.54;97742.63;5099387;27;38876;-86
2023/10/24 12:18:36;;;;;;;4.73;3.93;;;;;;;15.80;94.28;97742.16;5116104;27;40468;-86
2023/10/24 12:21:07;;;;;;;4.40;4.00;;;;;;;15.79;94.09;97738.66;5099308;27;43279;-85
2023/10/24 12:23:36;;;;;;;4.60;3.77;;;;;;;15.87;94.50;97748.53;5099452;27;41391;-86
2023/10/24 12:26:04;;;;;;;4.20;3.43;;;;;;;15.85;94.32;97742.50;5116934;27;40398;-86
2023/10/24 12:28:32;;;;;;;3.83;3.40;;;;;;;15.95;94.28;97751.25;5098380;27;43628;-87
2023/10/24 12:31:00;;;;;;;4.47;3.20;;;;;;;15.89;94.06;97737.72;5099129;27;41791;-86
2023/10/24 12:33:28;;;;;;;3.70;3.30;;;;;;;15.87;94.32;97747.69;5134207;27;42106;-85
2023/10/24 12:35:56;;;;;;;3.87;3.47;;;;;;;15.94;94.30;97746.94;5116463;27;39145;-85
2023/10/24 12:38:26;;;;;;;4.43;3.90;;;;;;;15.87;94.38;97745.88;5099385;27;41896;-85
2023/10/24 12:40:53;;;;;;;4.60;3.60;;;;;;;15.73;94.61;97727.75;5114861;27;42547;-86
2023/10/24 12:43:21;;;;;;;3.53;3.23;;;;;;;15.72;94.75;97720.72;5131686;27;43117;-86
2023/10/24 12:45:48;;;;;;;4.00;3.37;;;;;;;15.72;94.43;97715.38;5097413;27;40417;-85
2023/10/24 12:48:16;;;;;;;5.50;4.03;;;;;;;15.82;94.57;97737.50;5114982;27;40740;-85
2023/10/24 12:50:44;;;;;;;4.57;3.73;;;;;;;15.83;94.60;97725.81;5097479;27;44508;-86
2023/10/24 12:53:12;;;;;;;4.37;3.97;;;;;;;15.86;94.79;97727.34;5097777;27;41147;-86
2023/10/24 12:55:41;;;;;;;5.20;3.93;;;;;;;15.57;95.02;97677.78;5095951;27;39059;-85
2023/10/24 12:58:09;;;;;;;4.77;3.43;;;;;;;15.89;94.66;97727.88;5096989;27;41720;-85
2023/10/24 13:00:36;;;;;;;5.77;4.17;;;;;;;15.67;94.76;97697.19;5097455;27;41712;-85
2023/10/24 13:03:04;;;;;;;4.57;4.03;;;;;;;15.74;94.69;97703.56;5097331;27;42813;-87
2023/10/24 13:05:32;;;;;;;2.87;2.67;;;;;;;15.76;94.54;97706.91;5097169;27;40337;-87
2023/10/24 13:08:00;;;;;;;3.07;2.87;;;;;;;15.89;94.72;97727.03;5097400;27;41546;-88
2023/10/24 13:10:28;;;;;;;5.10;3.23;;;;;;;15.83;94.61;97715.13;5113552;27;42392;-88
2023/10/24 13:12:57;;;;;;;4.63;3.50;;;;;;;15.77;94.73;97697.09;5095594;27;41235;-87
2023/10/24 13:15:25;;;;;;;3.47;3.17;;;;;;;15.78;94.70;97704.09;5098694;27;39473;-87
2023/10/24 13:17:52;;;;;;;6.30;4.13;;;;;;;15.79;94.71;97703.13;5098300;27;43365;-85
2023/10/24 13:20:20;;;;;;;4.07;3.63;;;;;;;15.85;94.76;97705.13;5098643;27;41789;-88
2023/10/24 13:22:47;;;;;;;4.00;3.60;;;;;;;15.82;95.04;97708.94;5098000;27;41321;-85
2023/10/24 13:25:15;;;;;;;4.30;3.53;;;;;;;15.72;95.18;97700.22;5115806;27;38817;-85
2023/10/24 13:27:43;;;;;;;3.77;3.07;;;;;;;15.75;95.38;97705.25;5096414;27;42545;-88
2023/10/24 16:26:47;;;;;;;6.50;4.27;;;;;;;12.34;100.00;97630.66;5122748;27;21133;-85
2023/10/24 16:29:15;;;;;;;3.20;2.93;;;;;;;12.71;100.00;97632.66;5071799;28;40494;-85
2023/10/24 16:31:43;;;;;;;3.37;3.07;;;;;;;13.07;100.00;97626.63;5072219;28;42279;-86
2023/10/24 16:34:10;;;;;;;3.63;3.33;;;;;;;13.47;100.00;97638.91;5071951;28;41958;-86
2023/10/24 16:36:38;;;;;;;3.47;3.07;;;;;;;13.53;100.00;97609.91;5070582;28;41214;-87
2023/10/24 16:39:06;;;;;;;2.80;2.50;;;;;;;13.76;100.00;97620.19;5070582;28;38608;-87
2023/10/24 16:41:33;;;;;;;3.73;3.30;;;;;;;14.03;100.00;97644.16;5070626;28;40816;-87
2023/10/24 16:44:02;;;;;;;2.80;2.50;;;;;;;14.17;100.00;97651.69;5070905;28;41664;-87
2023/10/24 16:46:30;;;;;;;2.40;2.20;;;;;;;14.06;100.00;97616.41;5069983;28;42415;-87
